This is the latest recevied weather packets stored in our database for station/object S57ZT-10. If no packets are shown the sender has not sent any weather packets the latest 10 day(s).
| Time | Temp. | Humidity | Pressure | Rain* | Wind** | Luminosity | Snow |
|---|---|---|---|---|---|---|---|
| 1787414568 | 28.89° C | 36% | 1020.3 hPa | - | - | - | - |
| 1787413707 | 28.89° C | 35% | 1020.2 hPa | - | - | - | - |
| 1787413668 | 28.89° C | 35% | 1020.2 hPa | - | - | - | - |
| 1787412768 | 28.89° C | 32% | 1020.1 hPa | - | - | - | - |
| 1787411880 | 29.44° C | 31% | 1019.9 hPa | - | - | - | - |
| 1787410968 | 29.44° C | 31% | 1019.9 hPa | - | - | - | - |
| 1787410102 | 28.89° C | 33% | 1020 hPa | - | - | - | - |
| 1787410068 | 28.89° C | 33% | 1020 hPa | - | - | - | - |
| 1787409201 | 30° C | 35% | 1020.2 hPa | - | - | - | - |
| 1787409168 | 30° C | 35% | 1020.2 hPa | - | - | - | - |
| 1787408267 | 30° C | 37% | 1020.1 hPa | - | - | - | - |
| 1787407403 | 30° C | 36% | 1020.1 hPa | - | - | - | - |
| 1787407367 | 30° C | 36% | 1020.1 hPa | - | - | - | - |
| 1787406467 | 29.44° C | 38% | 1020 hPa | - | - | - | - |
| 1787405567 | 28.33° C | 40% | 1020 hPa | - | - | - | - |
| 1787404667 | 28.33° C | 40% | 1019.9 hPa | - | - | - | - |
| 1787403766 | 28.89° C | 39% | 1019.7 hPa | - | - | - | - |
| 1787402866 | 29.44° C | 37% | 1019.5 hPa | - | - | - | - |
| 1787401966 | 28.89° C | 40% | 1019.6 hPa | - | - | - | - |
| 1787401066 | 29.44° C | 39% | 1019.7 hPa | - | - | - | - |
| 1787400166 | 29.44° C | 38% | 1019.4 hPa | - | - | - | - |
| 1787399266 | 28.89° C | 39% | 1019.4 hPa | - | - | - | - |
| 1787398366 | 28.33° C | 40% | 1019.5 hPa | - | - | - | - |
| 1787397466 | 28.33° C | 40% | 1019.3 hPa | - | - | - | - |
| 1787396565 | 28.33° C | 39% | 1019.2 hPa | - | - | - | - |
* Rain since midnight (hover to see other rain measurements)
** Current wind speed in m/s (hover to see current wind gust speed)